Nearby METAR Reports

 

KIAG - Niagara Falls, New York, USA
Distance from station: W 12mi, 20km
Updated: 01/21/2019 2:19am
Heavy snow, Overcast
Heavy snow, Overcast
 Wind from NNW
Wind: NNW 16 mph , 26 km/h
Temperature: -2°F , -19°C
Wind Chill: -23°F , -31°C
Dew Point: -8°F , -22°C
Humidity: 77%
Barometer: 1021.3 hPa
Summary: Heavy Snow
Clouds: Overcast
Visibility: 1/4 mile , 2 km
Cloud details: Mostly cloudy 900 ft
Overcast 2600 ft
2019/01/21 07:19 KIAG 210719Z AUTO 34014KT 1/4SM +SN BKN009 OVC026 M19/M22 A3016 RMK AO2 P0000 T11941222 RVRNO $
KBUF - Buffalo/Cheektow, New York, USA
Distance from station: S 13mi, 21km
Updated: 01/21/2019 2:08am
Light snow, Overcast
Light snow, Overcast
 Wind from NW
Wind: NW 13 mph , 20 km/h
Temperature: -2°F , -19°C
Wind Chill: -21°F , -29°C
Dew Point: -9°F , -23°C
Humidity: 71%
Barometer: 1020.3 hPa
Summary: Light Snow
Clouds: Overcast
Visibility: 7 miles , 11 km
Cloud details: Mostly cloudy 2900 ft
Overcast 5000 ft
2019/01/21 07:08 KBUF 210708Z 32011KT 7SM -SN BKN029 OVC050 M19/M23 A3013 RMK AO2 P0000 T11941233
 
KROC - Rochester, New York, USA
Distance from station: E 51mi, 82km
Updated: 01/21/2019 1:54am
Light snow, Blowing, Snow, Overcast
Light snow, Blowing, Snow, Overcast
 Wind from WNW
Wind: WNW 14 mph , 22 km/h
Temperature: -2°F , -19°C
Wind Chill: -21°F , -29°C
Dew Point: -6°F , -21°C
Humidity: 84%
Barometer: 1017.9 hPa
Summary: Light snow, Blowing, Snow
Clouds: Overcast
Visibility: 1 1/4 miles , 2 km
Cloud details: Mostly cloudy 1200 ft
Overcast 20000 ft
2019/01/21 06:54 KROC 210654Z 30012KT 1 1/4SM -SN BLSN BKN012 OVC200 M19/M21 A3006 RMK AO2 SLP197 BINOVC VIS 3/4V2 P0000 T11891211 $
CYSN - St. Catharines A, Ontario, Canada
Distance from station: WNW 25mi, 40km
Updated: 01/20/2019 9:00pm
NOT Current
Light snow, Low drifting, Snow, Mostly cloudy
Light snow, Low drifting, Snow, Mostly cloudy
 Wind from NNW
Wind: NNW 20 mph , 31 km/h, Gust: 32 mph , 52 km/h
Temperature: 3°F , -16°C
Wind Chill: -18°F , -28°C
Dew Point: -6°F , -21°C
Humidity: 66%
Barometer: 1019.3 hPa
Summary: Light snow, Low drifting, Snow
Clouds: Mostly cloudy
Visibility: 10 miles , 16 km
Cloud details: Mostly cloudy 2700 ft
2019/01/21 02:00 CYSN 210200Z 34017G28KT 10SM -SN DRSN BKN027 M16/M21 A3010 RMK SC7 LAST STFD O0BS / NEXT 211200 UTC SLP203
 
KOLE - Olean, New York, USA
Distance from station: SSE 63mi, 102km
Updated: 01/21/2019 2:15am
Mostly cloudy
Mostly cloudy
 Wind from NW
Wind: NW 8 mph , 13 km/h, Gust: 21 mph , 33 km/h
Temperature: -8°F , -22°C
Wind Chill: -24°F , -31°C
Dew Point: -13°F , -25°C
Humidity: 77%
Barometer: 1012.9 hPa
Clouds: Mostly cloudy
Visibility: 10 miles , 16 km
Cloud details: Mostly cloudy 1600 ft
2019/01/21 07:15 KOLE 210715Z AUTO 31007G18KT 10SM BKN016 M22/M25 A2991 RMK AO2
KJHW - Jamestown, New York, USA
Distance from station: SSW 74mi, 119km
Updated: 01/21/2019 2:18am
Light snow, Mist, Overcast
Light snow, Mist, Overcast
 Wind from NNW
Wind: NNW 14 mph , 22 km/h, Gust: 21 mph , 33 km/h
Temperature: -2°F , -19°C
Wind Chill: -21°F , -29°C
Dew Point: -6°F , -21°C
Humidity: 84%
Barometer: 1016.9 hPa
Summary: Light snow, Mist
Clouds: Overcast
Visibility: 1 1/4 miles , 2 km
Cloud details: Overcast 1000 ft
2019/01/21 07:18 KJHW 210718Z AUTO 33012G18KT 1 1/4SM -SN BR OVC010 M19/M21 A3003 RMK AO2 CIG 007V013 P0000 FZRANO
 
CWWZ - Port Weller (mar, Ontario, Canada
Distance from station: WNW 28mi, 45km
Updated: 01/21/2019 2:00am

 Wind from NNW
Wind: NNW 32 mph , 52 km/h, Gust: 40 mph , 65 km/h
Temperature: 7°F , -14°C
Wind Chill: -17°F , -27°C
Dew Point: 3°F , -16°C
Humidity: 85%
2019/01/21 07:00 CWWZ 210700Z AUTO 33028G35KT M14/M16 RMK AO1 SOG 03 3012 PK WND 32036/0634 SLP233 T11441161
CWPC - Port Colborne(Au, Ontario, Canada
Distance from station: WSW 33mi, 53km
Updated: 01/21/2019 2:00am

 Wind from NNW
Wind: NNW 16 mph , 26 km/h, Gust: 22 mph , 35 km/h
Temperature: -0°F , -18°C
Wind Chill: -20°F , -29°C
Dew Point: -9°F , -23°C
Humidity: 65%
2019/01/21 07:00 CWPC 210700Z AUTO 33014G19KT M18/M23 RMK AO1 PK WND 35024/0646 SLP230 T11831228 53013
 
CXVN - Vineland (au8), Ontario, Canada
Distance from station: W 36mi, 58km
Updated: 01/21/2019 2:00am

 Wind from NW
Wind: NW 24 mph , 39 km/h, Gust: 33 mph , 54 km/h
Temperature: 1°F , -17°C
Wind Chill: -22°F , -30°C
Dew Point: -6°F , -21°C
Humidity: 71%
2019/01/21 07:00 CXVN 210700Z AUTO 32021G29KT M17/M21 RMK AO1 2PAST HR SOG 27 3014 PK WND 33033/0600 SLP231 P0001 T11721207 50002
CYTZ - Toronto Il Vor, Ontario, Canada
Distance from station: NW 50mi, 81km
Updated: 01/21/2019 2:00am
Clear
Clear
 Wind from NNW
Wind: NNW 17 mph , 28 km/h, Gust: 28 mph , 44 km/h
Temperature: -6°F , -21°C
Wind Chill: -28°F , -33°C
Dew Point: -18°F , -28°C
Humidity: 54%
Barometer: 1023 hPa
Clouds: Clear
Visibility: 9 miles , 14 km
2019/01/21 07:00 CYTZ 210700Z AUTO 33015G24KT 9SM CLR M21/M28 A3021 RMK SLP238
 
CXTO - Toronto City, Ontario, Canada
Distance from station: NW 52mi, 84km
Updated: 01/21/2019 2:00am

 
Temperature: -6°F , -21°C
Dew Point: -20°F , -29°C
Humidity: 49%
2019/01/21 07:00 CXTO 210700Z AUTO M21/M29 RMK AO1 SOG 04 3009 SLP229 T12141287
KDKK - Dunkirk, New York, USA
Distance from station: SW 52mi, 84km
Updated: 01/21/2019 1:53am
Overcast
Overcast
 Wind from NNW
Wind: NNW 17 mph , 28 km/h, Gust: 25 mph , 41 km/h
Temperature: 1°F , -17°C
Wind Chill: -19°F , -28°C
Dew Point: -8°F , -22°C
Humidity: 65%
Barometer: 1022 hPa
Clouds: Overcast
Visibility: 7 miles , 11 km
Cloud details: Mostly cloudy 2300 ft
Overcast 2900 ft
2019/01/21 06:53 KDKK 210653Z AUTO 34015G22KT 7SM BKN023 OVC029 M17/M22 A3018 RMK AO2 SLP235 T11721217
 
CYOO - Oshawa, Ontario, Canada
Distance from station: N 56mi, 90km
Updated: 01/21/2019 2:06am
Haze, Clear
Haze, Clear
 Wind from NNW
Wind: NNW 23 mph , 37 km/h, Gust: 33 mph , 54 km/h
Temperature: -11°F , -24°C
Wind Chill: -38°F , -39°C
Dew Point: -20°F , -29°C
Humidity: 63%
Barometer: 1020.3 hPa
Summary: Haze
Clouds: Clear
Visibility: 6 miles , 10 km
2019/01/21 07:06 CYOO 210706Z AUTO 33020G29KT 6SM HZ CLR M24/M29 A3013 RMK SLP220
CWWB - Burlington Piers, Ontario, Canada
Distance from station: WNW 56mi, 91km
Updated: 01/21/2019 2:00am

 Wind from WNW
Wind: WNW 10 mph , 17 km/h
Temperature: -0°F , -18°C
Wind Chill: -16°F , -27°C
Dew Point: -9°F , -23°C
Humidity: 65%
2019/01/21 07:00 CWWB 210700Z AUTO 30009KT M18/M23 RMK AO1 SLP242 T11751233 53015
 
CYYZ - Toronto/Pearson, Ontario, Canada
Distance from station: NW 60mi, 96km
Updated: 01/21/2019 2:00am
Clear
Clear
 Wind from N
Wind: N 17 mph , 28 km/h, Gust: 25 mph , 41 km/h
Temperature: -8°F , -22°C
Wind Chill: -31°F , -35°C
Dew Point: -17°F , -27°C
Humidity: 64%
Barometer: 1022 hPa
Clouds: Clear
Visibility: 15 miles , 24 km
2019/01/21 07:00 CYYZ 210700Z 35015G22KT 15SM SKC M22/M27 A3018 RMK SLP237
CYKZ - Toronto Buttonvi, Ontario, Canada
Distance from station: NW 62mi, 99km
Updated: 01/03/2019 4:00am
NOT Current
Partly cloudy
Partly cloudy
 Wind from WSW
Wind: WSW 5 mph , 7 km/h
Temperature: 27°F , -3°C
Wind Chill: 21°F , -6°C
Dew Point: 23°F , -5°C
Humidity: 86%
Barometer: 1010.8 hPa
Clouds: Partly cloudy
Visibility: 15 miles , 24 km
Cloud details: Partly cloudy 4000 ft
2019/01/03 09:00 CYKZ 030900Z 25004KT 15SM SCT040 M03/M05 A2985 RMK SC3 LAST STFD OBS FAREWELL SLP118
 
CXHM - Hamilton Rbg Cs, Ontario, Canada
Distance from station: W 62mi, 100km
Updated: 01/21/2019 2:00am

 Wind from WNW
Wind: WNW 2 mph , 4 km/h
Temperature: -6°F , -21°C
Dew Point: -11°F , -24°C
Humidity: 77%
2019/01/21 07:00 CXHM 210700Z AUTO 29002KT M21/M24 RMK AO1 SLP247 T12051243 53014
KDSV - Dansville, New York, USA
Distance from station: SE 62mi, 100km
Updated: 01/21/2019 2:15am
Overcast
Overcast
 Wind from WNW
Wind: WNW 10 mph , 17 km/h, Gust: 21 mph , 33 km/h
Temperature: -2°F , -19°C
Wind Chill: -18°F , -28°C
Dew Point: -11°F , -24°C
Humidity: 65%
Barometer: 1018.3 hPa
Clouds: Overcast
Visibility: 10 miles , 16 km
Cloud details: Mostly cloudy 2900 ft
Overcast 3600 ft
2019/01/21 07:15 KDSV 210715Z AUTO 30009G18KT 10SM BKN029 OVC036 M19/M24 A3007 RMK AO2 T11891244
 
CYHM - Hamilton Airport, Ontario, Canada
Distance from station: W 63mi, 101km
Updated: 01/21/2019 2:00am
Few Clouds
Few Clouds
 Wind from WNW
Wind: WNW 9 mph , 15 km/h
Temperature: -6°F , -21°C
Wind Chill: -22°F , -30°C
Dew Point: -13°F , -25°C
Humidity: 70%
Barometer: 1021.7 hPa
Clouds: Few Clouds
Visibility: 15 miles , 24 km
Cloud details: Few Clouds 2000 ft
2019/01/21 07:00 CYHM 210700Z 30008KT 15SM FEW020 M21/M25 A3017 RMK SC1 SC TR SLP240
CWNC - Cobourg (mars), Ontario, Canada
Distance from station: NNE 63mi, 102km
Updated: 01/21/2019 2:00am

 Wind from NNW
Wind: NNW 12 mph , 19 km/h, Gust: 21 mph , 33 km/h
Temperature: -9°F , -23°C
Wind Chill: -29°F , -34°C
Dew Point: -20°F , -29°C
Humidity: 58%
2019/01/21 07:00 CWNC 210700Z AUTO 34010G18KT M23/M29 RMK AO1 SOG 03 2011 PK WND 33022/0632 SLP199 T12321291